Townline, New York
Current Conditions -  °F | °C
As of 7:16 PM on Friday 28 Nov 2014 (Local Time) from KBUF Reporting Station
Light Snow Light Snow  
Wind Chill: -8°   Ceiling: 2600
Heat Index: -4°   Visibility: 8mi
Dew Point: -11°   Wind: 5mph
Humidity: 62%   Direction: 290°WNW
Pressure: 30.21"   Gusts: NA
Location:  42.8931°N, 78.5076°W
Report Text: KBUF 290016Z 29004KT 8SM -SN BKN026 OVC038 M04/M11 A3021 RMK AO2 P0000 T10441106
Loading
Personal Weather Stations






























Interactive Weather Map New forecast layout! Learn more

10-Day Weather Forecast

Advertisements
Track Severe Weather on mobile